Time;durP1;ratioP1;P1;durP2;ratioP2;P2;SDS_P1;SDS_P2;PMS_P1;PMS_P2;Temp;Humidity;BMP_temperature;BMP_pressure;BME280_temperature;BME280_humidity;BME280_pressure;Samples;Min_cycle;Max_cycle;Signal;HPM_P1;HPM_P2
2022/03/21 00:01:30;;;;;;;7.37;6.77;;;;;;;7.38;42.74;96693.63;4376372;32;20260;-61
2022/03/21 00:03:56;;;;;;;7.93;6.67;;;;;;;7.04;43.45;96711.25;4376585;32;20206;-61
2022/03/21 00:06:22;;;;;;;9.60;7.20;;;;;;;7.02;43.26;96703.56;4390792;32;20315;-60
2022/03/21 00:08:47;;;;;;;7.60;6.83;;;;;;;7.04;43.40;96695.44;4377418;32;20340;-61
2022/03/21 00:11:13;;;;;;;7.00;6.30;;;;;;;6.97;43.29;96700.03;4377500;32;25631;-60
2022/03/21 00:13:39;;;;;;;7.60;6.97;;;;;;;6.95;43.26;96697.62;4377597;32;20189;-60
2022/03/21 00:16:07;;;;;;;7.60;6.80;;;;;;;6.76;44.08;96710.19;4377867;32;20188;-61
2022/03/21 00:18:34;;;;;;;9.67;7.37;;;;;;;7.08;43.66;96701.81;4375502;32;20199;-60
2022/03/21 00:20:59;;;;;;;7.90;7.27;;;;;;;6.98;43.56;96706.91;4377719;32;20272;-60
2022/03/21 00:23:25;;;;;;;7.67;6.80;;;;;;;6.89;43.63;96704.62;4386865;32;20283;-61
2022/03/21 00:25:51;;;;;;;8.03;7.23;;;;;;;6.72;44.37;96703.78;4374845;32;20189;-60
2022/03/21 00:28:17;;;;;;;8.37;6.87;;;;;;;6.87;44.13;96706.72;4383419;32;20317;-60
2022/03/21 00:30:44;;;;;;;8.37;7.57;;;;;;;6.94;44.13;96701.31;4374386;32;20254;-60
2022/03/21 00:33:10;;;;;;;8.17;7.37;;;;;;;7.05;43.91;96702.31;4375218;32;20284;-60
2022/03/21 00:35:36;;;;;;;7.27;6.57;;;;;;;6.96;44.17;96701.06;4375649;32;20277;-60
2022/03/21 00:38:03;;;;;;;8.33;7.47;;;;;;;7.00;44.30;96702.22;4362989;32;20289;-61
2022/03/21 00:40:31;;;;;;;10.50;9.50;;;;;;;6.90;44.30;96703.59;4362675;32;20180;-61
2022/03/21 00:42:58;;;;;;;8.13;7.30;;;;;;;6.95;44.23;96704.75;4379467;32;20295;-61
2022/03/21 00:45:24;;;;;;;8.47;7.77;;;;;;;6.87;44.19;96717.25;4388747;32;20277;-64
2022/03/21 00:47:50;;;;;;;7.87;7.07;;;;;;;6.94;44.28;96708.41;4377788;32;20295;-60
2022/03/21 00:50:18;;;;;;;8.73;7.73;;;;;;;6.82;44.34;96708.47;4365872;32;20269;-61
2022/03/21 00:52:44;;;;;;;8.47;7.20;;;;;;;6.58;44.81;96715.66;4376797;32;22149;-61
2022/03/21 00:55:10;;;;;;;8.27;7.57;;;;;;;6.83;44.38;96716.16;4361824;32;20281;-61
2022/03/21 00:57:37;;;;;;;8.43;7.53;;;;;;;6.83;44.20;96716.16;4361772;32;20243;-61
2022/03/21 01:00:05;;;;;;;9.13;8.10;;;;;;;6.82;44.91;96717.19;4362510;32;20373;-61
2022/03/21 01:02:30;;;;;;;8.63;7.83;;;;;;;6.59;45.39;96713.81;4362551;32;20273;-61
2022/03/21 01:04:55;;;;;;;7.77;7.00;;;;;;;6.77;45.54;96711.81;4360197;32;20272;-61
2022/03/21 01:07:21;;;;;;;8.27;7.47;;;;;;;6.74;45.01;96711.47;4378202;32;20218;-61
2022/03/21 01:09:46;;;;;;;8.60;7.70;;;;;;;6.79;44.99;96715.00;4375934;32;20169;-61
2022/03/21 01:12:11;;;;;;;8.23;6.87;;;;;;;6.60;45.49;96716.22;4386144;32;20254;-61
2022/03/21 01:14:37;;;;;;;9.23;7.60;;;;;;;6.48;45.81;96705.69;4371017;32;20228;-61
2022/03/21 01:17:03;;;;;;;11.87;7.70;;;;;;;6.76;45.46;96707.56;4370782;32;20226;-61
2022/03/21 01:19:30;;;;;;;8.10;7.33;;;;;;;6.69;45.66;96709.53;4388334;32;20223;-61
2022/03/21 01:21:56;;;;;;;9.10;8.27;;;;;;;6.44;46.46;96711.69;4391115;32;20180;-61
2022/03/21 01:24:21;;;;;;;8.70;7.90;;;;;;;6.65;45.83;96711.03;4379124;32;20284;-61
2022/03/21 01:26:46;;;;;;;9.40;7.70;;;;;;;6.58;45.86;96702.47;4389895;32;20302;-61
2022/03/21 01:29:12;;;;;;;12.00;8.07;;;;;;;6.62;45.85;96702.81;4374188;32;20176;-61
2022/03/21 01:31:37;;;;;;;8.30;7.53;;;;;;;6.72;45.56;96698.50;4369771;32;20212;-61
2022/03/21 01:34:02;;;;;;;8.47;7.77;;;;;;;6.51;45.74;96702.59;4382021;32;20181;-61
2022/03/21 01:36:28;;;;;;;9.27;7.77;;;;;;;6.40;46.08;96698.16;4363000;32;20230;-61
2022/03/21 01:38:53;;;;;;;8.20;7.43;;;;;;;6.48;45.74;96695.13;4375715;32;20205;-61
2022/03/21 01:41:18;;;;;;;10.60;7.97;;;;;;;6.46;45.51;96704.31;4377263;32;20199;-60
2022/03/21 01:44:05;;;;;;;8.37;7.23;;;;;;;6.60;45.17;96699.59;4387734;32;20259;-60
2022/03/21 01:46:32;;;;;;;7.80;7.03;;;;;;;6.39;45.14;96699.19;4365904;32;20188;-61
2022/03/21 01:48:59;;;;;;;8.07;7.37;;;;;;;6.31;45.30;96702.16;4362680;32;20339;-61
2022/03/21 01:51:26;;;;;;;9.23;8.23;;;;;;;6.17;45.74;96701.63;4380682;32;20287;-62
2022/03/21 01:56:40;;;;;;;8.70;7.77;;;;;;;6.08;46.16;96707.47;4380406;32;20311;-61
2022/03/21 01:59:08;;;;;;;8.30;7.50;;;;;;;6.19;46.09;96706.66;4380671;32;20289;-60
2022/03/21 02:01:34;;;;;;;8.57;7.70;;;;;;;6.22;46.06;96708.84;4361846;32;20280;-61
2022/03/21 02:03:59;;;;;;;9.30;8.33;;;;;;;6.15;45.92;96708.97;4375344;32;20308;-61
2022/03/21 02:06:28;;;;;;;9.60;8.70;;;;;;;6.15;46.16;96714.22;4372791;32;20250;-61
2022/03/21 02:08:55;;;;;;;8.90;8.10;;;;;;;6.09;46.16;96703.78;4378595;32;20219;-61
2022/03/21 02:11:20;;;;;;;8.93;7.87;;;;;;;6.08;46.49;96712.72;4372994;32;20277;-61
2022/03/21 02:13:46;;;;;;;8.40;7.70;;;;;;;5.85;46.89;96716.13;4362019;32;20269;-61
2022/03/21 02:16:11;;;;;;;8.33;7.53;;;;;;;6.07;46.52;96717.19;4374549;32;20242;-61
2022/03/21 02:18:40;;;;;;;8.33;7.53;;;;;;;5.83;47.04;96710.28;4362492;32;20180;-60
2022/03/21 02:21:14;;;;;;;8.70;7.87;;;;;;;5.82;47.10;96713.94;4380084;32;20188;-61
2022/03/21 02:23:49;;;;;;;10.00;8.20;;;;;;;5.92;46.99;96713.44;4370213;32;20354;-60
2022/03/21 02:26:16;;;;;;;8.80;8.00;;;;;;;6.07;46.80;96719.03;4367787;32;20332;-60
2022/03/21 02:28:42;;;;;;;10.53;7.93;;;;;;;5.94;47.09;96722.69;4374931;32;20298;-60
2022/03/21 02:31:08;;;;;;;8.50;7.60;;;;;;;5.99;47.07;96719.38;4390748;32;20276;-61
2022/03/21 02:33:34;;;;;;;8.90;8.10;;;;;;;5.76;48.15;96714.88;4378947;32;20304;-61
2022/03/21 02:36:02;;;;;;;8.10;7.40;;;;;;;5.80;47.56;96706.31;4365216;32;20260;-61
2022/03/21 02:38:27;;;;;;;8.33;7.40;;;;;;;5.86;47.58;96709.84;4377232;32;20331;-61
2022/03/21 02:40:54;;;;;;;9.03;8.20;;;;;;;5.65;48.37;96713.03;4365494;32;20289;-61
2022/03/21 02:43:19;;;;;;;8.13;7.47;;;;;;;5.69;48.08;96714.19;4364677;32;20230;-61
2022/03/21 02:45:44;;;;;;;9.20;7.87;;;;;;;5.52;48.04;96725.38;4376603;32;20300;-61
2022/03/21 02:48:13;;;;;;;9.43;8.20;;;;;;;5.51;48.67;96722.97;4383793;32;20207;-61
2022/03/21 02:50:49;;;;;;;8.13;7.10;;;;;;;5.59;47.93;96724.47;4393633;32;20251;-60
2022/03/21 02:53:16;;;;;;;7.97;7.23;;;;;;;5.58;48.08;96718.41;4378840;32;20387;-60
2022/03/21 02:55:42;;;;;;;7.70;6.90;;;;;;;5.71;48.09;96718.19;4372020;32;20290;-61
2022/03/21 02:58:07;;;;;;;8.40;7.40;;;;;;;5.66;47.68;96717.25;4393690;32;20268;-61
2022/03/21 03:00:32;;;;;;;8.60;7.83;;;;;;;5.70;47.72;96715.78;4385030;32;20197;-61
2022/03/21 03:02:58;;;;;;;8.43;7.60;;;;;;;5.81;47.47;96712.38;4385173;32;20231;-61
2022/03/21 03:05:23;;;;;;;9.00;7.83;;;;;;;5.66;47.86;96725.97;4371269;32;20185;-61
2022/03/21 03:07:49;;;;;;;10.73;7.57;;;;;;;5.75;47.71;96734.34;4387899;32;20236;-60
2022/03/21 03:10:14;;;;;;;7.50;6.80;;;;;;;5.60;48.13;96726.09;4378294;32;20268;-61
2022/03/21 03:12:41;;;;;;;8.37;7.33;;;;;;;5.60;48.27;96721.63;4364619;32;20191;-61
2022/03/21 03:15:07;;;;;;;8.30;7.43;;;;;;;5.38;48.69;96725.81;4362360;32;20262;-61
2022/03/21 03:17:32;;;;;;;9.13;7.70;;;;;;;5.40;48.94;96726.38;4385296;32;20292;-61
2022/03/21 03:19:57;;;;;;;9.27;7.20;;;;;;;5.61;48.52;96725.06;4372624;32;20237;-61
2022/03/21 03:22:24;;;;;;;8.80;7.87;;;;;;;5.61;48.56;96728.47;4365507;32;20197;-60
2022/03/21 03:24:50;;;;;;;9.57;8.57;;;;;;;5.57;48.53;96726.53;4371533;32;20188;-61
2022/03/21 03:27:16;;;;;;;8.53;7.60;;;;;;;5.68;48.73;96728.38;4364077;32;20288;-60
2022/03/21 03:29:44;;;;;;;10.60;9.67;;;;;;;5.53;49.20;96734.06;4381719;32;20284;-61
2022/03/21 03:32:09;;;;;;;12.13;8.43;;;;;;;5.54;49.25;96733.03;4377720;32;20189;-61
2022/03/21 03:34:35;;;;;;;8.77;8.00;;;;;;;5.44;49.74;96723.06;4377804;32;20310;-61
2022/03/21 03:37:01;;;;;;;10.50;8.40;;;;;;;5.47;50.03;96729.72;4377718;32;20185;-61
2022/03/21 03:39:26;;;;;;;9.30;8.40;;;;;;;5.25;50.68;96728.63;4377312;32;20203;-61
2022/03/21 03:41:51;;;;;;;9.43;8.57;;;;;;;5.35;50.71;96734.16;4379285;32;20197;-61
2022/03/21 03:44:17;;;;;;;10.33;8.70;;;;;;;5.38;51.13;96737.13;4363596;32;20230;-61
2022/03/21 03:46:44;;;;;;;9.80;7.67;;;;;;;5.42;51.20;96738.28;4378320;32;20184;-60
2022/03/21 03:49:12;;;;;;;9.57;8.67;;;;;;;5.00;52.51;96736.66;4360136;32;20273;-61
2022/03/21 03:51:37;;;;;;;9.73;8.40;;;;;;;5.00;52.78;96736.66;4381536;32;20284;-61
2022/03/21 03:54:03;;;;;;;9.70;8.80;;;;;;;5.01;53.75;96740.88;4372688;32;20314;-61
2022/03/21 03:56:28;;;;;;;10.93;8.60;;;;;;;5.13;52.81;96741.75;4378553;32;20319;-61
2022/03/21 03:58:53;;;;;;;10.23;9.23;;;;;;;5.08;53.13;96738.97;4382707;32;20192;-60
2022/03/21 04:01:19;;;;;;;12.37;9.23;;;;;;;5.11;53.23;96734.06;4385838;32;20197;-60
2022/03/21 04:03:47;;;;;;;9.27;8.37;;;;;;;4.95;53.90;96731.28;4377447;32;20354;-60
2022/03/21 04:06:16;;;;;;;10.47;9.47;;;;;;;5.00;53.99;96734.00;4373752;32;20189;-60
2022/03/21 04:08:43;;;;;;;9.73;8.37;;;;;;;5.15;53.94;96734.44;4363982;32;20289;-60
2022/03/21 04:11:08;;;;;;;11.17;9.33;;;;;;;5.03;54.23;96737.00;4377058;32;20312;-60
2022/03/21 04:13:34;;;;;;;11.53;10.10;;;;;;;4.96;54.53;96738.13;4375860;32;20295;-60
2022/03/21 04:15:59;;;;;;;10.97;9.40;;;;;;;4.89;54.76;96734.78;4375360;32;20281;-61
2022/03/21 04:18:26;;;;;;;11.03;9.83;;;;;;;4.93;54.71;96741.22;4380754;32;20184;-60
2022/03/21 04:20:52;;;;;;;11.77;9.07;;;;;;;4.91;54.38;96745.87;4383662;32;20244;-60
2022/03/21 04:23:17;;;;;;;14.40;10.10;;;;;;;4.95;54.45;96747.06;4377603;32;20343;-60
2022/03/21 04:25:44;;;;;;;10.87;9.83;;;;;;;4.63;55.69;96747.22;4377180;32;20289;-61
2022/03/21 04:28:10;;;;;;;11.23;9.40;;;;;;;4.50;56.34;96750.00;4376163;32;20236;-61
2022/03/21 04:30:37;;;;;;;13.53;9.50;;;;;;;4.61;56.50;96746.63;4363061;32;20305;-61
2022/03/21 04:33:05;;;;;;;9.97;8.87;;;;;;;4.72;55.78;96743.28;4362845;32;20333;-61
2022/03/21 04:35:31;;;;;;;13.00;9.23;;;;;;;4.76;55.38;96752.34;4376604;32;20310;-61
2022/03/21 04:37:57;;;;;;;9.70;8.70;;;;;;;4.81;55.09;96754.28;4375063;32;20276;-61
2022/03/21 04:40:23;;;;;;;10.67;9.57;;;;;;;4.91;54.89;96751.94;4382714;32;20185;-61
2022/03/21 04:42:48;;;;;;;10.83;9.10;;;;;;;4.87;55.36;96753.41;4375334;32;20201;-61
2022/03/21 04:45:14;;;;;;;10.37;8.77;;;;;;;4.99;55.44;96756.88;4374975;32;20211;-61
2022/03/21 04:47:39;;;;;;;12.27;9.27;;;;;;;5.01;55.58;96764.53;4369454;32;20254;-61
2022/03/21 04:50:07;;;;;;;13.03;9.40;;;;;;;4.65;56.65;96758.31;4376095;32;20220;-61
2022/03/21 04:52:33;;;;;;;10.23;8.57;;;;;;;4.68;57.19;96764.97;4363284;32;20185;-61
2022/03/21 04:54:58;;;;;;;12.90;9.60;;;;;;;4.67;57.44;96758.91;4362450;32;20285;-61
2022/03/21 04:57:23;;;;;;;15.93;10.17;;;;;;;4.74;57.05;96774.59;4377299;32;20296;-60
2022/03/21 04:59:52;;;;;;;16.40;10.03;;;;;;;4.73;57.06;96773.81;4376890;32;20259;-61
2022/03/21 05:02:17;;;;;;;19.00;9.63;;;;;;;4.76;56.96;96773.38;4381666;32;20215;-61
2022/03/21 05:04:43;;;;;;;13.97;9.77;;;;;;;4.58;57.35;96785.69;4384043;32;20340;-61
2022/03/21 05:07:12;;;;;;;13.73;10.20;;;;;;;4.49;57.84;96782.56;4379627;32;20246;-61
2022/03/21 05:09:40;;;;;;;11.93;9.73;;;;;;;4.58;57.72;96786.47;4384828;32;20204;-61
2022/03/21 05:12:08;;;;;;;14.10;9.90;;;;;;;4.32;58.36;96782.34;4376485;32;20288;-61
2022/03/21 05:14:33;;;;;;;10.97;8.90;;;;;;;4.35;58.34;96781.09;4388744;32;20314;-61
2022/03/21 05:17:02;;;;;;;10.10;9.07;;;;;;;4.45;57.89;96786.63;4375189;32;20328;-61
2022/03/21 05:19:28;;;;;;;15.20;9.63;;;;;;;4.65;57.59;96787.22;4375311;32;20181;-61
2022/03/21 05:21:53;;;;;;;12.60;9.17;;;;;;;4.51;57.72;96785.78;4388993;32;20291;-61
2022/03/21 05:32:31;;;;;;;12.17;9.43;;;;;;;4.61;57.59;96793.94;4379740;32;20337;-60
2022/03/21 05:37:40;;;;;;;11.43;9.40;;;;;;;4.57;57.85;96803.31;4382893;32;20207;-60
2022/03/21 05:42:50;;;;;;;13.80;9.57;;;;;;;4.63;58.24;96809.47;4381453;32;20191;-60
2022/03/21 05:45:19;;;;;;;14.07;10.23;;;;;;;4.70;58.04;96808.41;4379892;32;20381;-60
2022/03/21 05:50:32;;;;;;;12.13;9.30;;;;;;;4.60;58.54;96805.47;4383175;32;20397;-60
2022/03/21 05:52:57;;;;;;;12.13;9.50;;;;;;;4.41;59.52;96806.47;4377623;32;20303;-60
2022/03/21 05:55:23;;;;;;;18.97;11.63;;;;;;;4.62;58.84;96806.06;4378694;32;20197;-60
2022/03/21 05:57:48;;;;;;;14.87;10.73;;;;;;;4.80;58.04;96807.87;4375323;32;20184;-60
2022/03/21 06:00:23;;;;;;;12.27;10.10;;;;;;;4.63;58.61;96802.41;4374395;32;20188;-61
2022/03/21 06:02:50;;;;;;;14.97;10.00;;;;;;;4.65;58.85;96803.00;4375761;32;20198;-60
2022/03/21 06:05:15;;;;;;;17.77;10.67;;;;;;;4.47;59.65;96805.63;4375725;32;20299;-60
2022/03/21 06:07:40;;;;;;;14.23;11.13;;;;;;;4.00;60.73;96813.09;4362065;32;20276;-61
2022/03/21 06:10:06;;;;;;;10.43;9.33;;;;;;;4.06;60.99;96822.75;4374424;32;20196;-61
2022/03/21 06:12:32;;;;;;;11.77;9.90;;;;;;;4.32;60.50;96819.09;4367426;32;20203;-61
2022/03/21 06:14:57;;;;;;;15.20;9.83;;;;;;;4.64;59.37;96817.16;4381629;32;20273;-62
2022/03/21 06:17:22;;;;;;;10.57;9.43;;;;;;;4.71;58.57;96817.91;4365059;32;20177;-61
2022/03/21 06:19:48;;;;;;;16.60;10.20;;;;;;;4.75;58.55;96824.31;4389191;32;20184;-61
2022/03/21 06:22:13;;;;;;;11.20;10.10;;;;;;;4.72;58.99;96827.38;4375787;32;20172;-61
2022/03/21 06:24:39;;;;;;;12.47;9.60;;;;;;;5.01;57.76;96822.41;4369426;32;20224;-61
2022/03/21 06:27:04;;;;;;;14.50;9.80;;;;;;;4.77;58.48;96832.00;4363787;32;20180;-61
2022/03/21 06:29:29;;;;;;;15.13;10.90;;;;;;;4.80;58.52;96829.72;4369115;32;20188;-61
2022/03/21 06:31:55;;;;;;;12.17;10.03;;;;;;;4.51;59.32;96837.50;4370556;32;20288;-61
2022/03/21 06:34:20;;;;;;;14.87;9.63;;;;;;;4.48;59.73;96844.81;4375914;32;20259;-60
2022/03/21 06:36:45;;;;;;;13.13;10.47;;;;;;;4.71;59.48;96836.28;4367781;32;20272;-61
2022/03/21 06:39:11;;;;;;;16.53;10.70;;;;;;;4.83;58.46;96841.62;4361611;32;20234;-61
2022/03/21 06:41:37;;;;;;;12.07;10.17;;;;;;;5.13;57.74;96828.53;4361186;32;20196;-61
2022/03/21 06:44:03;;;;;;;13.90;9.30;;;;;;;5.27;57.38;96837.84;4361469;32;20192;-61
2022/03/21 06:46:28;;;;;;;14.40;9.63;;;;;;;5.06;57.92;96830.44;4360744;32;20300;-61
2022/03/21 06:48:54;;;;;;;17.93;9.90;;;;;;;5.07;58.13;96843.38;4378404;32;20185;-61
2022/03/21 06:51:19;;;;;;;21.67;10.43;;;;;;;4.99;58.26;96845.50;4370266;32;20181;-61
2022/03/21 06:53:44;;;;;;;21.27;10.70;;;;;;;4.72;58.25;96840.53;4384957;32;20199;-61
2022/03/21 06:56:09;;;;;;;12.77;9.70;;;;;;;4.68;58.95;96841.97;4378538;32;20216;-61
2022/03/21 06:58:35;;;;;;;16.53;10.17;;;;;;;4.74;58.63;96843.75;4377359;32;20177;-61
2022/03/21 07:01:00;;;;;;;17.27;10.97;;;;;;;4.39;59.63;96848.72;4368135;32;20189;-61
2022/03/21 07:03:26;;;;;;;13.23;10.53;;;;;;;4.75;58.84;96844.56;4376595;32;20233;-61
2022/03/21 07:05:52;;;;;;;15.30;9.97;;;;;;;4.85;58.93;96850.09;4367582;32;20185;-61
2022/03/21 07:08:17;;;;;;;15.23;10.00;;;;;;;5.16;57.56;96857.03;4381595;32;20302;-61
2022/03/21 07:10:44;;;;;;;16.80;10.90;;;;;;;5.36;57.01;96848.91;4377927;32;20198;-61
2022/03/21 07:13:10;;;;;;;16.33;11.03;;;;;;;5.39;56.66;96857.16;4374833;32;20228;-61
2022/03/21 07:15:37;;;;;;;13.20;11.27;;;;;;;5.39;56.75;96862.41;4378349;32;20276;-61
2022/03/21 07:18:03;;;;;;;13.80;10.83;;;;;;;5.28;57.16;96855.25;4391375;32;20189;-61
2022/03/21 07:20:28;;;;;;;14.07;10.70;;;;;;;5.46;56.46;96862.31;4377673;32;20301;-61
2022/03/21 07:22:55;;;;;;;13.97;11.00;;;;;;;5.49;56.40;96860.03;4380561;32;20317;-61
2022/03/21 07:25:21;;;;;;;16.97;11.10;;;;;;;5.50;55.97;96861.66;4379046;32;20250;-61
2022/03/21 07:27:47;;;;;;;18.77;11.93;;;;;;;5.71;55.55;96859.56;4382556;32;20375;-61
2022/03/21 07:30:14;;;;;;;12.50;10.97;;;;;;;5.67;55.88;96861.00;4385933;32;20227;-61
2022/03/21 07:32:40;;;;;;;15.17;11.37;;;;;;;5.60;55.97;96862.97;4377275;32;20269;-61
2022/03/21 07:35:07;;;;;;;15.67;11.23;;;;;;;5.53;55.41;96871.72;4373577;32;20303;-61
2022/03/21 07:37:40;;;;;;;14.63;11.73;;;;;;;5.64;55.71;96874.63;4373689;32;20381;-61
2022/03/21 07:40:06;;;;;;;17.57;9.67;;;;;;;5.74;55.07;96877.53;4361925;32;20284;-61
2022/03/21 07:42:33;;;;;;;14.37;10.57;;;;;;;5.75;54.86;96882.56;4381014;32;20316;-60
2022/03/21 07:47:43;;;;;;;23.63;9.27;;;;;;;6.60;65.07;96889.41;4377821;32;20330;-60
2022/03/21 07:50:09;;;;;;;15.13;10.07;;;;;;;7.87;66.67;96882.25;4363861;32;20288;-59
2022/03/21 07:52:34;;;;;;;24.00;11.13;;;;;;;8.12;58.65;96880.03;4360168;32;20288;-59
2022/03/21 07:54:59;;;;;;;22.43;10.50;;;;;;;8.14;54.97;96880.59;4375272;32;20222;-60
2022/03/21 07:57:27;;;;;;;12.57;9.57;;;;;;;8.36;57.86;96885.22;4382076;32;20180;-60
2022/03/21 07:59:53;;;;;;;17.50;10.43;;;;;;;8.56;56.60;96885.53;4376295;32;20184;-61
2022/03/21 08:02:21;;;;;;;14.67;9.80;;;;;;;8.78;55.00;96881.09;4374089;32;20350;-60
2022/03/21 08:04:50;;;;;;;15.53;11.10;;;;;;;8.75;52.63;96880.78;4360710;32;20268;-60
2022/03/21 08:07:17;;;;;;;11.97;9.50;;;;;;;8.80;51.59;96884.31;4373726;32;20280;-59
2022/03/21 08:09:46;;;;;;;16.60;10.70;;;;;;;8.79;51.47;96892.50;4367496;32;20359;-60
2022/03/21 08:12:11;;;;;;;13.47;9.93;;;;;;;8.81;49.99;96890.41;4382100;32;20315;-60
2022/03/21 08:14:38;;;;;;;14.80;10.10;;;;;;;8.68;49.98;96896.84;4362911;32;20288;-60
2022/03/21 08:17:05;;;;;;;13.27;10.03;;;;;;;8.72;49.21;96891.87;4378516;32;20304;-60
2022/03/21 08:19:31;;;;;;;18.63;11.17;;;;;;;8.93;52.07;96893.78;4389821;32;20284;-60
2022/03/21 08:21:58;;;;;;;12.37;10.60;;;;;;;8.99;47.67;96887.47;4376415;32;20268;-62
2022/03/21 08:24:24;;;;;;;13.97;10.23;;;;;;;8.35;47.55;96896.84;4381503;32;20199;-62
2022/03/21 08:26:53;;;;;;;18.53;11.47;;;;;;;8.45;47.80;96889.88;4383947;32;20295;-63
2022/03/21 08:29:19;;;;;;;18.03;10.93;;;;;;;8.19;47.83;96898.41;4362587;32;20318;-64
2022/03/21 08:31:45;;;;;;;14.50;11.20;;;;;;;7.92;48.20;96898.19;4376163;32;20284;-62
2022/03/21 08:34:11;;;;;;;13.90;10.67;;;;;;;7.84;48.53;96906.50;4375982;32;20299;-61
2022/03/21 08:36:36;;;;;;;15.23;10.17;;;;;;;7.92;47.18;96908.75;4377220;32;20407;-62
2022/03/21 08:39:02;;;;;;;11.77;9.87;;;;;;;8.04;45.72;96903.44;4370744;32;20203;-62
2022/03/21 08:41:28;;;;;;;12.70;9.97;;;;;;;8.09;45.65;96904.31;4387391;32;20184;-62
2022/03/21 08:43:53;;;;;;;12.30;10.00;;;;;;;8.21;46.06;96898.97;4378301;32;20394;-62
2022/03/21 08:46:19;;;;;;;10.93;9.83;;;;;;;8.29;46.42;96898.59;4371676;32;20221;-62
2022/03/21 08:51:29;;;;;;;11.10;9.93;;;;;;;8.46;44.31;96911.84;4388411;32;20199;-63
2022/03/21 08:53:55;;;;;;;11.70;9.27;;;;;;;8.51;45.32;96909.28;4364231;32;20280;-62
2022/03/21 08:56:20;;;;;;;10.83;9.20;;;;;;;8.49;44.84;96908.72;4375810;32;20189;-63
2022/03/21 08:58:46;;;;;;;16.10;10.87;;;;;;;8.57;44.23;96903.00;4361504;32;20372;-62
2022/03/21 09:01:12;;;;;;;12.07;10.60;;;;;;;8.59;44.17;96908.84;4362336;32;20188;-62
2022/03/21 09:03:38;;;;;;;14.73;10.20;;;;;;;8.69;44.79;96898.44;4371409;32;20204;-62
2022/03/21 09:06:06;;;;;;;13.80;10.87;;;;;;;8.82;43.77;96903.41;4375720;32;20371;-61
2022/03/21 09:08:32;;;;;;;13.57;11.03;;;;;;;8.91;43.77;96901.94;4375186;32;20184;-61
2022/03/21 09:10:57;;;;;;;13.90;10.87;;;;;;;8.93;43.60;96899.87;4380340;32;20280;-62
2022/03/21 09:13:23;;;;;;;12.90;11.60;;;;;;;8.85;44.15;96902.91;4366935;32;20246;-63
2022/03/21 09:15:48;;;;;;;13.13;10.80;;;;;;;8.95;43.87;96903.03;4363497;32;20177;-62
2022/03/21 09:18:14;;;;;;;15.33;11.97;;;;;;;8.99;44.13;96902.56;4376201;32;20204;-63
2022/03/21 09:20:39;;;;;;;16.50;11.73;;;;;;;8.71;44.75;96899.00;4386405;32;20273;-62
2022/03/21 09:23:05;;;;;;;12.63;11.27;;;;;;;8.93;44.03;96905.16;4376963;32;20223;-61
2022/03/21 09:25:30;;;;;;;15.53;11.20;;;;;;;9.12;43.51;96896.94;4383576;32;20195;-62
2022/03/21 09:27:55;;;;;;;12.93;10.80;;;;;;;9.33;43.28;96898.00;4365814;32;20219;-61
2022/03/21 09:30:21;;;;;;;18.20;11.27;;;;;;;9.36;42.65;96898.28;4375456;32;20204;-61
2022/03/21 09:32:46;;;;;;;15.17;11.37;;;;;;;9.50;42.49;96894.25;4361457;32;20287;-62
2022/03/21 09:35:13;;;;;;;14.20;11.23;;;;;;;9.48;42.29;96891.03;4375951;32;20208;-63
2022/03/21 09:37:39;;;;;;;14.17;10.87;;;;;;;9.53;41.94;96899.03;4377809;32;20214;-61
2022/03/21 09:40:06;;;;;;;15.40;10.57;;;;;;;9.46;42.15;96892.31;4360070;32;20277;-60
2022/03/21 09:42:33;;;;;;;15.27;11.00;;;;;;;9.63;41.92;96887.75;4362498;32;20192;-61
2022/03/21 09:44:58;;;;;;;15.20;11.00;;;;;;;9.76;41.51;96884.72;4373351;32;20276;-61
2022/03/21 09:50:11;;;;;;;13.13;10.27;;;;;;;9.94;41.08;96884.37;4375642;32;20235;-60
2022/03/21 09:52:40;;;;;;;15.03;11.33;;;;;;;10.23;41.33;96884.13;4361496;32;20276;-59
2022/03/21 09:55:07;;;;;;;13.23;11.23;;;;;;;10.08;40.82;96884.78;4382687;32;20260;-58
2022/03/21 09:57:36;;;;;;;16.20;10.87;;;;;;;10.10;41.06;96880.03;4369698;32;20268;-59
2022/03/21 10:00:03;;;;;;;12.00;10.60;;;;;;;10.11;40.29;96884.28;4390063;32;20337;-61
2022/03/21 10:02:29;;;;;;;13.23;10.40;;;;;;;10.17;40.57;96880.62;4383668;32;20276;-57
2022/03/21 10:04:54;;;;;;;14.87;10.93;;;;;;;10.27;40.27;96878.09;4376466;32;20280;-59
2022/03/21 10:07:26;;;;;;;11.83;10.67;;;;;;;10.52;39.56;96887.31;4371765;32;20173;-60
2022/03/21 10:10:16;;;;;;;15.43;10.10;;;;;;;10.48;39.43;96884.34;4360961;32;20268;-43
2022/03/21 10:12:42;;;;;;;18.60;8.70;;;;;;;11.36;63.12;96879.31;4352213;32;20304;-44
2022/03/21 10:15:10;;;;;;;13.47;8.73;;;;;;;13.65;50.75;96878.28;4361493;32;20292;-43
2022/03/21 10:17:36;;;;;;;11.47;8.90;;;;;;;14.38;40.51;96872.22;4365702;32;20189;-44
2022/03/21 10:20:04;;;;;;;12.60;10.30;;;;;;;14.73;40.58;96871.97;4375544;32;20196;-44
2022/03/21 10:22:32;;;;;;;14.47;9.60;;;;;;;15.41;36.23;96870.97;4382763;32;20177;-43
2022/03/21 10:25:03;;;;;;;12.43;9.87;;;;;;;14.99;39.76;96866.34;4373093;32;20177;-44
2022/03/21 10:27:28;;;;;;;13.33;8.60;;;;;;;16.39;36.73;96872.09;4374688;32;20191;-46
2022/03/21 10:29:59;;;;;;;13.03;9.70;;;;;;;16.92;35.58;96861.84;4377163;32;20204;-61
2022/03/21 10:32:33;;;;;;;11.93;10.73;;;;;;;16.35;35.52;96866.53;4359878;32;20268;-62
2022/03/21 10:35:05;;;;;;;11.50;10.23;;;;;;;14.76;31.62;96865.25;4372420;32;20281;-60
2022/03/21 10:37:41;;;;;;;12.73;11.13;;;;;;;13.90;32.56;96864.00;4361430;32;20242;-62
2022/03/21 10:40:17;;;;;;;15.17;11.77;;;;;;;12.84;34.17;96867.84;4369192;32;20177;-60
2022/03/21 10:42:55;;;;;;;15.40;13.83;;;;;;;12.29;34.87;96871.31;4375236;32;20234;-60
2022/03/21 10:45:22;;;;;;;11.23;9.80;;;;;;;12.02;35.92;96871.56;4378478;32;20195;-60
2022/03/21 10:47:52;;;;;;;12.73;11.40;;;;;;;11.59;36.98;96870.91;4361335;32;20210;-60
2022/03/21 10:50:31;;;;;;;13.40;10.43;;;;;;;11.60;36.79;96861.06;4363598;32;20275;-60
2022/03/21 10:53:06;;;;;;;10.90;9.83;;;;;;;11.40;37.06;96861.00;4376073;32;20207;-61
2022/03/21 10:55:32;;;;;;;10.93;9.93;;;;;;;11.31;37.06;96861.50;4363384;32;20184;-60
2022/03/21 10:57:57;;;;;;;11.97;10.70;;;;;;;11.12;37.56;96859.53;4378365;32;20247;-60
2022/03/21 11:00:26;;;;;;;11.63;10.43;;;;;;;11.14;37.16;96860.09;4365853;32;20185;-62
2022/03/21 11:02:56;;;;;;;15.20;10.53;;;;;;;11.21;37.33;96860.66;4378111;32;20246;-61
2022/03/21 11:05:23;;;;;;;16.07;10.20;;;;;;;11.11;37.91;96857.94;4377125;32;20241;-62
2022/03/21 11:07:49;;;;;;;11.70;10.13;;;;;;;11.18;39.56;96859.31;4379369;32;20241;-62
2022/03/21 11:10:16;;;;;;;11.17;10.03;;;;;;;11.14;38.98;96849.47;4367675;32;20216;-61
2022/03/21 11:12:42;;;;;;;12.50;9.83;;;;;;;11.22;37.99;96856.94;4367803;32;20204;-61
2022/03/21 11:15:09;;;;;;;12.30;9.87;;;;;;;11.48;37.45;96849.84;4378377;32;20249;-61
2022/03/21 11:17:35;;;;;;;10.47;9.47;;;;;;;11.61;37.52;96846.72;4364697;32;20198;-61
2022/03/21 11:20:05;;;;;;;11.00;9.80;;;;;;;11.80;37.13;96847.06;4377886;32;20231;-61
2022/03/21 11:22:33;;;;;;;11.43;9.60;;;;;;;11.67;37.29;96841.12;4390795;32;20328;-61
2022/03/21 11:25:09;;;;;;;11.97;10.27;;;;;;;11.83;38.38;96844.69;4363597;32;20172;-60
2022/03/21 11:27:47;;;;;;;11.27;9.83;;;;;;;11.87;37.38;96844.94;4378400;32;20259;-60
2022/03/21 11:30:37;;;;;;;11.50;10.30;;;;;;;11.83;37.35;96838.56;4365937;32;20219;-61
2022/03/21 11:33:40;;;;;;;11.77;10.63;;;;;;;11.85;37.20;96831.91;4360959;32;20169;-60
2022/03/21 11:36:11;;;;;;;11.33;10.20;;;;;;;11.86;36.79;96835.34;4372195;32;20181;-60
2022/03/21 11:38:45;;;;;;;13.43;10.70;;;;;;;11.79;36.26;96830.31;4369561;32;20198;-60
2022/03/21 11:41:21;;;;;;;13.13;9.67;;;;;;;11.78;36.18;96827.91;4367440;32;20220;-61
2022/03/21 11:44:04;;;;;;;12.50;10.03;;;;;;;11.68;36.16;96829.44;4368517;32;20181;-60
2022/03/21 11:46:31;;;;;;;11.87;9.63;;;;;;;11.73;36.30;96828.66;4362267;32;20246;-60
2022/03/21 11:49:22;;;;;;;11.33;10.17;;;;;;;11.79;36.39;96819.69;4384184;32;20215;-61
2022/03/21 11:52:01;;;;;;;11.17;9.40;;;;;;;11.83;36.66;96814.63;4380283;32;20200;-60
2022/03/21 11:54:27;;;;;;;10.50;9.50;;;;;;;11.93;35.87;96819.94;4385352;32;20196;-60
2022/03/21 11:56:54;;;;;;;9.97;9.07;;;;;;;11.86;36.06;96819.41;4382626;32;20228;-61
2022/03/21 11:59:34;;;;;;;10.80;9.80;;;;;;;11.87;35.76;96807.69;4363717;32;20196;-61